createdAt,value
2019-02-09T00:00:35.838Z,8.60
2019-02-09T00:03:02.135Z,8.60
2019-02-09T00:05:28.383Z,8.60
2019-02-09T00:07:54.421Z,8.60
2019-02-09T00:10:20.526Z,8.50
2019-02-09T00:12:46.878Z,8.50
2019-02-09T00:15:13.325Z,8.50
2019-02-09T00:17:39.355Z,8.50
2019-02-09T00:20:08.736Z,8.50
2019-02-09T00:22:34.743Z,8.40
2019-02-09T00:25:00.797Z,8.40
2019-02-09T00:27:27.255Z,8.30
2019-02-09T00:29:53.370Z,8.20
2019-02-09T00:32:19.431Z,8.10
2019-02-09T00:34:45.455Z,8.00
2019-02-09T00:37:11.495Z,7.90
2019-02-09T00:39:37.937Z,7.90
2019-02-09T00:42:04.143Z,7.80
2019-02-09T00:44:30.169Z,7.70
2019-02-09T00:46:56.455Z,7.70
2019-02-09T00:49:22.512Z,7.60
2019-02-09T00:51:48.533Z,7.50
2019-02-09T00:54:14.587Z,7.50
2019-02-09T00:56:40.623Z,7.40
2019-02-09T00:59:06.684Z,7.30
2019-02-09T01:01:32.711Z,7.30
2019-02-09T01:03:58.732Z,7.30
2019-02-09T01:06:25.053Z,7.30
2019-02-09T01:08:51.088Z,7.30
2019-02-09T01:11:17.119Z,7.30
2019-02-09T01:13:43.189Z,7.30
2019-02-09T01:16:09.208Z,7.20
2019-02-09T01:18:35.280Z,7.20
2019-02-09T01:21:01.317Z,7.20
2019-02-09T01:23:27.396Z,7.20
2019-02-09T01:25:53.700Z,7.20
2019-02-09T01:28:19.764Z,7.20
2019-02-09T01:30:45.821Z,7.20
2019-02-09T01:33:11.856Z,7.20
2019-02-09T01:35:38.015Z,7.20
2019-02-09T01:38:04.181Z,7.10
2019-02-09T01:40:30.242Z,7.10
2019-02-09T01:42:56.360Z,7.10
2019-02-09T01:45:30.583Z,7.10
2019-02-09T01:47:56.896Z,7.00
2019-02-09T01:50:24.344Z,6.90
2019-02-09T01:52:50.724Z,7.00
2019-02-09T01:55:16.759Z,6.90
2019-02-09T01:57:48.252Z,6.90
2019-02-09T02:00:20.587Z,6.90
2019-02-09T02:02:46.866Z,6.90
2019-02-09T02:05:16.009Z,6.90
2019-02-09T02:07:42.067Z,6.90
2019-02-09T02:10:23.731Z,6.90
2019-02-09T02:12:49.875Z,6.80
2019-02-09T02:15:17.249Z,6.80
2019-02-09T02:17:43.659Z,6.80
2019-02-09T02:20:23.847Z,6.90
2019-02-09T02:22:49.927Z,6.90
2019-02-09T02:25:16.187Z,6.80
2019-02-09T02:27:42.228Z,6.80
2019-02-09T02:30:22.909Z,6.90
2019-02-09T02:32:48.604Z,6.90
2019-02-09T02:35:14.983Z,6.90
2019-02-09T02:37:41.057Z,6.90
2019-02-09T02:40:10.614Z,6.90
2019-02-09T02:42:36.662Z,6.80
2019-02-09T02:45:06.447Z,6.90
2019-02-09T02:47:32.503Z,6.90
2019-02-09T02:49:58.748Z,6.90
2019-02-09T02:52:24.805Z,6.90
2019-02-09T02:54:50.863Z,6.90
2019-02-09T02:57:16.925Z,6.90
2019-02-09T02:59:42.984Z,6.90
2019-02-09T03:02:09.017Z,7.00
2019-02-09T03:04:35.090Z,7.00
2019-02-09T03:07:01.131Z,7.00
2019-02-09T03:09:27.187Z,7.00
2019-02-09T03:11:53.252Z,7.00
2019-02-09T03:14:19.280Z,7.10
2019-02-09T03:16:45.392Z,7.10
2019-02-09T03:19:11.421Z,7.10
2019-02-09T03:21:37.490Z,7.10
2019-02-09T03:24:03.550Z,7.10
2019-02-09T03:26:29.599Z,7.10
2019-02-09T03:28:55.654Z,7.10
2019-02-09T03:31:21.731Z,7.10
2019-02-09T03:33:47.748Z,7.10
2019-02-09T03:36:13.803Z,7.20
2019-02-09T03:38:40.245Z,7.20
2019-02-09T03:41:06.256Z,7.20
2019-02-09T03:43:32.539Z,7.20
2019-02-09T03:45:58.571Z,7.20
2019-02-09T03:48:24.731Z,7.20
2019-02-09T03:50:50.786Z,7.30
2019-02-09T03:53:16.824Z,7.20
2019-02-09T03:55:42.846Z,7.20
2019-02-09T03:58:08.935Z,7.30
2019-02-09T04:00:34.975Z,7.30
2019-02-09T04:03:01.681Z,7.20
2019-02-09T04:05:28.050Z,7.20
2019-02-09T04:07:54.094Z,7.20
2019-02-09T04:10:26.848Z,7.20
2019-02-09T04:12:52.982Z,7.20
2019-02-09T04:15:21.124Z,7.20
2019-02-09T04:17:47.195Z,7.20
2019-02-09T04:20:15.471Z,7.20
2019-02-09T04:22:41.652Z,7.20
2019-02-09T04:25:10.728Z,7.30
2019-02-09T04:27:36.875Z,7.30
2019-02-09T04:30:10.521Z,7.30
2019-02-09T04:32:36.794Z,7.30
2019-02-09T04:35:04.025Z,7.30
2019-02-09T04:37:30.425Z,7.30
2019-02-09T04:39:56.445Z,7.40
2019-02-09T04:42:22.471Z,7.40
2019-02-09T04:44:48.884Z,7.40
2019-02-09T04:47:15.034Z,7.30
2019-02-09T04:49:41.088Z,7.40
2019-02-09T04:52:07.106Z,7.40
2019-02-09T04:54:33.139Z,7.40
2019-02-09T04:56:59.185Z,7.40
2019-02-09T04:59:25.236Z,7.40
2019-02-09T05:01:51.385Z,7.40
2019-02-09T05:04:21.535Z,7.30
2019-02-09T05:06:47.593Z,7.30
2019-02-09T05:09:13.727Z,7.30
2019-02-09T05:11:39.756Z,7.30
2019-02-09T05:14:06.072Z,7.30
2019-02-09T05:16:32.163Z,7.30
2019-02-09T05:18:58.180Z,7.30
2019-02-09T05:21:24.237Z,7.30
2019-02-09T05:23:50.301Z,7.30
2019-02-09T05:26:16.439Z,7.30
2019-02-09T05:28:42.450Z,7.30
2019-02-09T05:31:08.535Z,7.30
2019-02-09T05:33:34.563Z,7.30
2019-02-09T05:36:00.760Z,7.30
2019-02-09T05:38:27.100Z,7.30
2019-02-09T05:40:53.181Z,7.30
2019-02-09T05:43:19.260Z,7.20
2019-02-09T05:45:45.527Z,7.20
2019-02-09T05:48:11.559Z,7.10
2019-02-09T05:50:37.576Z,7.10
2019-02-09T05:53:03.680Z,7.00
2019-02-09T05:55:29.763Z,7.10
2019-02-09T05:57:55.973Z,7.10
2019-02-09T06:00:27.015Z,7.10
2019-02-09T06:02:53.040Z,7.10
2019-02-09T06:05:19.422Z,7.10
2019-02-09T06:07:45.454Z,7.20
2019-02-09T06:10:16.789Z,7.20
2019-02-09T06:12:42.919Z,7.30
2019-02-09T06:15:26.564Z,7.30
2019-02-09T06:17:52.778Z,7.30
2019-02-09T06:20:24.444Z,7.30
2019-02-09T06:22:50.870Z,7.40
2019-02-09T06:25:16.928Z,7.30
2019-02-09T06:27:43.097Z,7.40
2019-02-09T06:30:15.999Z,7.40
2019-02-09T06:32:42.220Z,7.40
2019-02-09T06:35:09.525Z,7.40
2019-02-09T06:37:35.563Z,7.50
2019-02-09T06:40:02.140Z,7.50
2019-02-09T06:42:28.247Z,7.50
2019-02-09T06:44:54.356Z,7.40
2019-02-09T06:47:20.435Z,7.30
2019-02-09T06:49:46.513Z,7.30
2019-02-09T06:52:12.585Z,7.20
2019-02-09T06:54:38.661Z,7.00
2019-02-09T06:57:04.719Z,6.90
2019-02-09T06:59:30.914Z,6.80
2019-02-09T07:01:56.957Z,6.80
2019-02-09T07:04:22.981Z,6.80
2019-02-09T07:06:49.063Z,6.70
2019-02-09T07:09:15.090Z,6.70
2019-02-09T07:11:41.127Z,6.70
2019-02-09T07:14:07.279Z,6.70
2019-02-09T07:16:33.465Z,6.70
2019-02-09T07:18:59.648Z,6.80
2019-02-09T07:21:25.714Z,6.80
2019-02-09T07:23:51.776Z,6.80
2019-02-09T07:26:17.821Z,6.90
2019-02-09T07:28:43.887Z,6.90
2019-02-09T07:31:09.993Z,7.00
2019-02-09T07:33:36.245Z,7.00
2019-02-09T07:36:02.644Z,7.10
2019-02-09T07:38:28.674Z,7.10
2019-02-09T07:40:54.759Z,7.20
2019-02-09T07:43:20.806Z,7.20
2019-02-09T07:45:46.878Z,7.20
2019-02-09T07:48:12.900Z,7.30
2019-02-09T07:50:39.054Z,7.30
2019-02-09T07:53:05.104Z,7.30
2019-02-09T07:55:31.355Z,7.40
2019-02-09T07:57:57.520Z,7.40
2019-02-09T08:00:26.561Z,7.40
2019-02-09T08:02:52.843Z,7.50
2019-02-09T08:05:19.676Z,7.50
2019-02-09T08:07:45.976Z,7.50
2019-02-09T08:10:35.423Z,7.50
2019-02-09T08:13:08.539Z,7.70
2019-02-09T08:15:34.687Z,7.80
2019-02-09T08:18:01.150Z,7.70
2019-02-09T08:20:29.090Z,7.60
2019-02-09T08:22:57.275Z,7.70
2019-02-09T08:25:26.026Z,7.80
2019-02-09T08:27:52.454Z,7.80
2019-02-09T08:30:21.479Z,7.90
2019-02-09T08:32:48.126Z,7.90
2019-02-09T08:35:15.181Z,7.90
2019-02-09T08:37:41.196Z,7.90
2019-02-09T08:40:10.062Z,8.00
2019-02-09T08:42:36.301Z,7.90
2019-02-09T08:45:05.663Z,7.90
2019-02-09T08:47:31.803Z,7.90
2019-02-09T08:49:57.849Z,7.90
2019-02-09T08:52:23.947Z,7.80
2019-02-09T08:54:50.123Z,7.80
2019-02-09T08:57:16.230Z,8.00
2019-02-09T08:59:42.483Z,8.20
2019-02-09T09:02:10.533Z,8.30
2019-02-09T09:04:36.590Z,8.30
2019-02-09T09:07:03.518Z,8.30
2019-02-09T09:09:29.604Z,8.40
2019-02-09T09:11:55.798Z,8.30
2019-02-09T09:14:21.939Z,8.30
2019-02-09T09:16:47.990Z,8.10
2019-02-09T09:19:14.165Z,8.20
2019-02-09T09:21:40.203Z,8.20
2019-02-09T09:24:06.375Z,8.40
2019-02-09T09:26:32.623Z,8.60
2019-02-09T09:28:58.692Z,8.80
2019-02-09T09:31:24.775Z,8.80
2019-02-09T09:33:50.902Z,8.90
2019-02-09T09:36:16.959Z,8.90
2019-02-09T09:38:43.099Z,8.90
2019-02-09T09:41:09.120Z,9.10
2019-02-09T09:43:35.190Z,9.20
2019-02-09T09:46:01.254Z,9.30
2019-02-09T09:48:27.364Z,9.20
2019-02-09T09:50:53.469Z,9.20
2019-02-09T09:53:19.544Z,9.40
2019-02-09T09:55:45.604Z,9.40
2019-02-09T09:58:11.843Z,9.60
2019-02-09T10:00:37.996Z,9.70
2019-02-09T10:03:04.264Z,9.70
2019-02-09T10:05:30.505Z,9.70
2019-02-09T10:07:56.880Z,9.60
2019-02-09T10:10:22.954Z,9.40
2019-02-09T10:12:49.195Z,9.30
2019-02-09T10:15:18.433Z,9.10
2019-02-09T10:17:44.664Z,9.00
2019-02-09T10:20:17.588Z,9.00
2019-02-09T10:22:44.071Z,9.00
2019-02-09T10:25:11.032Z,8.90
2019-02-09T10:27:37.111Z,8.90
2019-02-09T10:30:12.792Z,9.10
2019-02-09T10:32:44.546Z,9.20
2019-02-09T10:35:12.209Z,9.10
2019-02-09T10:37:38.231Z,9.30
2019-02-09T10:40:08.069Z,9.40
2019-02-09T10:42:34.111Z,9.50
2019-02-09T10:45:00.395Z,9.60
2019-02-09T10:47:26.587Z,9.70
2019-02-09T10:49:52.622Z,9.50
2019-02-09T10:52:19.140Z,9.50
2019-02-09T10:54:45.528Z,9.60
2019-02-09T10:57:11.575Z,9.70
2019-02-09T10:59:37.633Z,9.70
2019-02-09T11:02:04.131Z,9.60
2019-02-09T11:04:30.322Z,9.70
2019-02-09T11:06:56.419Z,9.80
2019-02-09T11:09:24.295Z,9.70
2019-02-09T11:11:50.422Z,9.90
2019-02-09T11:14:16.485Z,9.90
2019-02-09T11:16:42.635Z,9.90
2019-02-09T11:19:09.051Z,9.90
2019-02-09T11:21:35.079Z,9.70
2019-02-09T11:24:01.347Z,9.60
2019-02-09T11:26:27.410Z,9.50
2019-02-09T11:28:53.435Z,9.30
2019-02-09T11:31:19.448Z,9.40
2019-02-09T11:33:45.595Z,9.50
2019-02-09T11:36:11.625Z,9.50
2019-02-09T11:38:37.670Z,9.60
2019-02-09T11:41:05.095Z,9.80
2019-02-09T11:43:31.232Z,9.90
2019-02-09T11:45:57.270Z,10.00
2019-02-09T11:48:23.420Z,10.10
2019-02-09T11:50:49.542Z,10.00
2019-02-09T11:53:15.571Z,9.90
2019-02-09T11:55:41.681Z,9.90
2019-02-09T11:58:07.818Z,9.80
2019-02-09T12:00:49.041Z,9.90
2019-02-09T12:03:16.293Z,9.90
2019-02-09T12:05:42.609Z,9.80
2019-02-09T12:08:08.993Z,9.80
2019-02-09T12:10:35.136Z,9.90
2019-02-09T12:13:01.227Z,9.90
2019-02-09T12:15:29.863Z,9.80
2019-02-09T12:17:56.199Z,10.00
2019-02-09T12:20:22.489Z,10.10
2019-02-09T12:22:48.698Z,10.00
2019-02-09T12:25:20.894Z,10.10
2019-02-09T12:27:47.044Z,10.30
2019-02-09T12:30:23.318Z,10.30
2019-02-09T12:32:49.710Z,10.40
2019-02-09T12:35:17.131Z,10.40
2019-02-09T12:37:43.218Z,10.40
2019-02-09T12:40:29.415Z,10.20
2019-02-09T12:42:55.598Z,10.00
2019-02-09T12:45:24.016Z,9.80
2019-02-09T12:47:50.318Z,9.80
2019-02-09T12:50:18.700Z,9.80
2019-02-09T12:52:45.834Z,9.90
2019-02-09T12:55:14.307Z,9.80
2019-02-09T12:57:40.351Z,9.80
2019-02-09T13:00:10.245Z,9.80
2019-02-09T13:02:36.468Z,10.00
2019-02-09T13:05:04.004Z,10.00
2019-02-09T13:07:30.040Z,10.00
2019-02-09T13:09:56.160Z,10.00
2019-02-09T13:12:22.316Z,10.10
2019-02-09T13:14:48.363Z,10.20
2019-02-09T13:17:14.585Z,10.30
2019-02-09T13:19:40.932Z,10.10
2019-02-09T13:22:06.986Z,10.10
2019-02-09T13:24:33.129Z,10.00
2019-02-09T13:26:59.340Z,9.90
2019-02-09T13:29:25.568Z,9.90
2019-02-09T13:31:51.806Z,9.90
2019-02-09T13:34:17.900Z,10.00
2019-02-09T13:36:43.975Z,10.00
2019-02-09T13:39:10.032Z,9.90
2019-02-09T13:41:36.167Z,9.90
2019-02-09T13:44:02.602Z,9.90
2019-02-09T13:46:28.837Z,10.10
2019-02-09T13:48:55.407Z,10.30
2019-02-09T13:51:22.133Z,10.30
2019-02-09T13:53:48.243Z,10.40
2019-02-09T13:56:14.387Z,10.40
2019-02-09T13:58:40.635Z,10.40
2019-02-09T14:01:06.810Z,10.50
2019-02-09T14:03:33.553Z,10.60
2019-02-09T14:06:07.889Z,10.70
2019-02-09T14:08:27.792Z,10.70
2019-02-09T14:10:53.842Z,10.60
2019-02-09T14:13:19.958Z,10.50
2019-02-09T14:15:46.006Z,10.60
2019-02-09T14:18:12.070Z,10.50
2019-02-09T14:20:38.369Z,10.40
2019-02-09T14:23:05.060Z,10.40
2019-02-09T14:25:31.232Z,10.50
2019-02-09T14:27:59.103Z,10.50
2019-02-09T14:30:28.343Z,10.30
2019-02-09T14:32:54.510Z,10.00
2019-02-09T14:35:21.732Z,9.90
2019-02-09T14:37:48.337Z,9.70
2019-02-09T14:40:17.581Z,9.60
2019-02-09T14:42:43.699Z,9.40
2019-02-09T14:45:16.007Z,9.20
2019-02-09T14:47:42.076Z,8.80
2019-02-09T14:50:11.479Z,8.30
2019-02-09T14:52:37.705Z,7.80
2019-02-09T14:55:07.452Z,7.30
2019-02-09T14:57:33.491Z,7.20
2019-02-09T14:59:59.560Z,7.10
2019-02-09T15:02:25.737Z,7.00
2019-02-09T15:04:51.801Z,7.00
2019-02-09T15:07:17.943Z,6.90
2019-02-09T15:09:43.984Z,6.90
2019-02-09T15:12:10.131Z,6.80
2019-02-09T15:14:36.731Z,6.80
2019-02-09T15:17:05.472Z,6.70
2019-02-09T15:19:30.909Z,6.60
2019-02-09T15:21:56.988Z,6.60
2019-02-09T15:24:23.039Z,6.60
2019-02-09T15:26:49.068Z,6.70
2019-02-09T15:29:15.157Z,6.80
2019-02-09T15:31:41.199Z,6.80
2019-02-09T15:34:10.421Z,6.80
2019-02-09T15:36:35.217Z,6.80
2019-02-09T15:39:01.468Z,6.80
2019-02-09T15:41:27.527Z,6.90
2019-02-09T15:43:53.811Z,6.90
2019-02-09T15:46:19.937Z,7.00
2019-02-09T15:48:45.996Z,7.00
2019-02-09T15:51:12.056Z,7.00
2019-02-09T15:53:38.087Z,7.00
2019-02-09T15:56:04.446Z,7.00
2019-02-09T15:58:30.560Z,7.00
2019-02-09T16:00:56.604Z,7.00
2019-02-09T16:03:22.828Z,7.00
2019-02-09T16:05:48.873Z,7.00
2019-02-09T16:08:14.931Z,7.00
2019-02-09T16:10:41.111Z,7.00
2019-02-09T16:13:07.333Z,7.00
2019-02-09T16:15:33.388Z,7.00
2019-02-09T16:18:03.405Z,7.00
2019-02-09T16:20:31.260Z,7.00
2019-02-09T16:22:57.364Z,7.00
2019-02-09T16:25:23.432Z,6.90
2019-02-09T16:27:49.604Z,6.90
2019-02-09T16:30:21.391Z,6.90
2019-02-09T16:32:47.741Z,6.90
2019-02-09T16:35:16.725Z,6.90
2019-02-09T16:37:42.748Z,7.00
2019-02-09T16:40:12.255Z,7.00
2019-02-09T16:42:38.648Z,7.00
2019-02-09T16:45:08.612Z,7.00
2019-02-09T16:47:34.636Z,7.00
2019-02-09T16:50:00.790Z,7.00
2019-02-09T16:52:26.833Z,7.10
2019-02-09T16:54:52.869Z,7.10
2019-02-09T16:57:19.055Z,7.10
2019-02-09T16:59:46.325Z,7.10
2019-02-09T17:02:12.373Z,7.10
2019-02-09T17:04:38.461Z,7.10
2019-02-09T17:07:05.103Z,7.10
2019-02-09T17:09:31.128Z,7.10
2019-02-09T17:11:57.214Z,7.00
2019-02-09T17:14:23.265Z,6.90
2019-02-09T17:16:49.317Z,6.90
2019-02-09T17:19:15.524Z,6.80
2019-02-09T17:21:41.741Z,6.70
2019-02-09T17:24:07.799Z,6.70
2019-02-09T17:26:33.906Z,6.70
2019-02-09T17:29:00.479Z,6.60
2019-02-09T17:31:26.537Z,6.60
2019-02-09T17:33:52.570Z,6.60
2019-02-09T17:36:18.719Z,6.60
2019-02-09T17:38:44.787Z,6.60
2019-02-09T17:41:10.845Z,6.60
2019-02-09T17:43:36.939Z,6.60
2019-02-09T17:46:07.630Z,6.60
2019-02-09T17:48:33.742Z,6.50
2019-02-09T17:51:07.596Z,6.60
2019-02-09T17:53:33.669Z,6.60
2019-02-09T17:55:59.725Z,6.60
2019-02-09T17:58:26.436Z,6.60
2019-02-09T18:00:54.578Z,6.70
2019-02-09T18:03:20.635Z,6.70
2019-02-09T18:05:47.116Z,6.70
2019-02-09T18:08:13.263Z,6.70
2019-02-09T18:10:39.705Z,6.70
2019-02-09T18:13:05.710Z,6.80
2019-02-09T18:15:31.856Z,6.80
2019-02-09T18:17:58.106Z,6.80
2019-02-09T18:20:24.131Z,6.80
2019-02-09T18:22:50.297Z,6.80
2019-02-09T18:25:20.642Z,6.80
2019-02-09T18:27:46.812Z,6.90
2019-02-09T18:30:16.467Z,6.90
2019-02-09T18:32:42.597Z,7.00
2019-02-09T18:35:08.852Z,7.00
2019-02-09T18:37:34.897Z,7.00
2019-02-09T18:40:01.479Z,7.00
2019-02-09T18:42:27.588Z,7.00
2019-02-09T18:44:54.313Z,7.00
2019-02-09T18:47:20.452Z,7.10
2019-02-09T18:49:46.482Z,7.10
2019-02-09T18:52:12.722Z,7.20
2019-02-09T18:54:39.368Z,7.10
2019-02-09T18:57:05.408Z,7.20
2019-02-09T18:59:31.523Z,7.20
2019-02-09T19:01:57.666Z,7.20
2019-02-09T19:04:23.799Z,7.20
2019-02-09T19:06:49.853Z,7.20
2019-02-09T19:09:15.945Z,7.10
2019-02-09T19:11:42.033Z,7.10
2019-02-09T19:14:08.370Z,7.10
2019-02-09T19:16:34.435Z,7.10
2019-02-09T19:19:00.480Z,7.10
2019-02-09T19:21:26.618Z,7.30
2019-02-09T19:23:52.637Z,7.20
2019-02-09T19:26:18.675Z,7.30
2019-02-09T19:28:44.813Z,7.20
2019-02-09T19:31:10.937Z,7.30
2019-02-09T19:33:36.996Z,7.30
2019-02-09T19:36:03.223Z,7.30
2019-02-09T19:38:29.312Z,7.30
2019-02-09T19:40:55.488Z,7.20
2019-02-09T19:43:24.617Z,7.30
2019-02-09T19:45:50.656Z,7.40
2019-02-09T19:48:17.019Z,7.40
2019-02-09T19:50:43.338Z,7.40
2019-02-09T19:53:09.465Z,7.40
2019-02-09T19:55:35.784Z,7.40
2019-02-09T19:58:02.660Z,7.40
2019-02-09T20:00:43.175Z,7.40
2019-02-09T20:03:09.357Z,7.40
2019-02-09T20:05:35.375Z,7.50
2019-02-09T20:08:01.505Z,7.40
2019-02-09T20:10:31.172Z,7.50
2019-02-09T20:12:57.304Z,7.50
2019-02-09T20:15:23.640Z,7.50
2019-02-09T20:17:49.690Z,7.60
2019-02-09T20:20:17.141Z,7.50
2019-02-09T20:22:43.153Z,7.60
2019-02-09T20:25:22.620Z,7.60
2019-02-09T20:27:48.660Z,7.60
2019-02-09T20:30:23.638Z,7.60
2019-02-09T20:32:50.126Z,7.60
2019-02-09T20:35:19.000Z,7.70
2019-02-09T20:37:45.136Z,7.60
2019-02-09T20:40:23.663Z,7.70
2019-02-09T20:42:49.765Z,7.60
2019-02-09T20:45:15.891Z,7.60
2019-02-09T20:47:47.952Z,7.60
2019-02-09T20:50:12.803Z,7.60
2019-02-09T20:52:41.909Z,7.60
2019-02-09T20:55:10.357Z,7.70
2019-02-09T20:57:36.496Z,7.70
2019-02-09T21:00:06.335Z,7.70
2019-02-09T21:02:32.649Z,7.60
2019-02-09T21:04:58.840Z,7.60
2019-02-09T21:07:24.911Z,7.60
2019-02-09T21:09:50.991Z,7.70
2019-02-09T21:12:17.604Z,7.70
2019-02-09T21:14:43.703Z,7.70
2019-02-09T21:17:09.731Z,7.70
2019-02-09T21:19:35.761Z,7.70
2019-02-09T21:22:01.889Z,7.80
2019-02-09T21:24:27.987Z,7.80
2019-02-09T21:26:54.644Z,7.80
2019-02-09T21:29:22.501Z,7.80
2019-02-09T21:31:48.970Z,7.80
2019-02-09T21:34:15.084Z,7.70
2019-02-09T21:36:41.131Z,7.60
2019-02-09T21:39:07.244Z,7.60
2019-02-09T21:41:33.275Z,7.60
2019-02-09T21:43:59.330Z,7.60
2019-02-09T21:46:25.367Z,7.60
2019-02-09T21:48:51.475Z,7.60
2019-02-09T21:51:17.655Z,7.60
2019-02-09T21:53:43.788Z,7.60
2019-02-09T21:56:09.872Z,7.60
2019-02-09T21:58:35.875Z,7.60
2019-02-09T22:01:02.019Z,7.60
2019-02-09T22:03:28.056Z,7.60
2019-02-09T22:05:54.090Z,7.70
2019-02-09T22:08:20.174Z,7.70
2019-02-09T22:10:46.222Z,7.70
2019-02-09T22:13:12.230Z,7.70
2019-02-09T22:15:39.176Z,7.70
2019-02-09T22:18:05.399Z,7.70
2019-02-09T22:20:31.480Z,7.60
2019-02-09T22:22:59.106Z,7.50
2019-02-09T22:25:26.078Z,7.40
2019-02-09T22:27:56.771Z,7.50
2019-02-09T22:30:28.619Z,7.40
2019-02-09T22:32:55.206Z,7.20
2019-02-09T22:35:21.517Z,7.20
2019-02-09T22:37:47.716Z,7.10
2019-02-09T22:40:23.060Z,7.10
2019-02-09T22:42:49.419Z,7.10
2019-02-09T22:45:21.483Z,7.10
2019-02-09T22:47:49.080Z,7.10
2019-02-09T22:50:26.121Z,7.00
2019-02-09T22:52:52.769Z,6.90
2019-02-09T22:55:20.524Z,7.00
2019-02-09T22:57:46.973Z,7.00
2019-02-09T23:00:24.803Z,7.00
2019-02-09T23:02:50.919Z,7.00
2019-02-09T23:05:32.416Z,7.00
2019-02-09T23:07:58.514Z,7.00
2019-02-09T23:10:24.566Z,7.10
2019-02-09T23:12:50.607Z,7.00
2019-02-09T23:15:16.676Z,7.00
2019-02-09T23:17:42.749Z,7.00
2019-02-09T23:20:09.090Z,6.90
2019-02-09T23:22:35.113Z,6.90
2019-02-09T23:25:01.155Z,6.90
2019-02-09T23:27:27.211Z,6.90
2019-02-09T23:29:53.247Z,6.90
2019-02-09T23:32:19.297Z,7.00
2019-02-09T23:34:45.351Z,7.10
2019-02-09T23:37:11.379Z,7.10
2019-02-09T23:39:37.416Z,7.20
2019-02-09T23:42:03.471Z,7.20
2019-02-09T23:44:29.500Z,7.20
2019-02-09T23:46:55.531Z,7.30
2019-02-09T23:49:21.795Z,7.30
2019-02-09T23:51:47.815Z,7.30
2019-02-09T23:54:13.845Z,7.30
2019-02-09T23:56:39.987Z,7.30
2019-02-09T23:59:06.033Z,7.30
